Time;durP1;ratioP1;P1;durP2;ratioP2;P2;SDS_P1;SDS_P2;PMS_P1;PMS_P2;Temp;Humidity;BMP_temperature;BMP_pressure;BME280_temperature;BME280_humidity;BME280_pressure;Samples;Min_cycle;Max_cycle;Signal;HPM_P1;HPM_P2
2021/06/12 00:01:23;;;;;;;3.15;2.40;;;;;;;23.11;67.98;100550.15;1731292;81;21083;-58
2021/06/12 00:03:49;;;;;;;3.00;2.45;;;;;;;23.10;67.98;100554.07;1740351;82;21212;-58
2021/06/12 00:06:15;;;;;;;3.42;2.62;;;;;;;23.10;67.94;100548.52;1748479;80;21206;-58
2021/06/12 00:08:41;;;;;;;2.92;2.33;;;;;;;23.08;67.88;100544.72;1729469;81;21029;-58
2021/06/12 00:11:07;;;;;;;2.83;2.22;;;;;;;23.08;67.86;100545.29;1730064;81;20987;-58
2021/06/12 00:13:33;;;;;;;3.67;2.20;;;;;;;23.06;67.82;100543.41;1714778;83;21453;-58
2021/06/12 00:15:59;;;;;;;3.87;2.40;;;;;;;23.06;67.76;100540.64;1751896;80;21942;-58
2021/06/12 00:18:26;;;;;;;3.15;2.25;;;;;;;23.07;67.77;100533.95;1733262;81;21009;-58
2021/06/12 00:20:54;;;;;;;3.37;2.60;;;;;;;23.08;67.82;100537.78;1716530;81;21288;-58
2021/06/12 00:23:20;;;;;;;2.75;2.20;;;;;;;23.08;67.88;100537.78;1737140;81;21575;-58
2021/06/12 00:25:46;;;;;;;2.95;2.12;;;;;;;23.08;67.94;100536.97;1738472;81;21024;-58
2021/06/12 00:28:12;;;;;;;2.60;2.30;;;;;;;23.08;67.94;100539.73;1714206;81;21639;-59
2021/06/12 00:30:38;;;;;;;3.22;2.50;;;;;;;23.07;67.93;100534.77;1738370;81;20932;-58
2021/06/12 00:33:05;;;;;;;2.87;2.20;;;;;;;23.07;67.88;100536.15;1738718;81;21245;-58
2021/06/12 00:35:32;;;;;;;3.00;2.30;;;;;;;23.06;67.88;100539.25;1717456;82;21427;-58
2021/06/12 00:37:58;;;;;;;2.72;2.17;;;;;;;23.04;67.84;100532.65;1715296;82;21072;-58
2021/06/12 00:40:24;;;;;;;2.42;2.02;;;;;;;23.03;67.77;100527.45;1713709;83;21616;-59
2021/06/12 00:42:51;;;;;;;2.37;1.87;;;;;;;23.03;67.74;100523.30;1694897;83;21000;-59
2021/06/12 00:45:24;;;;;;;3.17;2.10;;;;;;;23.03;67.74;100531.05;1718872;81;21498;-58
2021/06/12 00:47:52;;;;;;;3.37;1.90;;;;;;;23.04;67.79;100531.27;1719259;81;21036;-58
2021/06/12 00:50:21;;;;;;;2.75;2.33;;;;;;;23.05;67.84;100532.89;1708099;83;21084;-58
2021/06/12 00:52:47;;;;;;;2.50;2.00;;;;;;;23.05;67.89;100532.08;1717930;81;21051;-59
2021/06/12 00:55:15;;;;;;;2.58;2.15;;;;;;;23.04;67.91;100529.88;1713143;82;20997;-59
2021/06/12 00:57:42;;;;;;;3.00;2.20;;;;;;;23.04;67.91;100531.27;1710795;82;21285;-58
2021/06/12 01:00:11;;;;;;;3.00;2.02;;;;;;;23.03;67.85;100533.82;1715089;82;21494;-58
2021/06/12 01:02:37;;;;;;;2.70;2.05;;;;;;;23.02;67.83;100528.03;1713479;83;21081;-58
2021/06/12 01:05:06;;;;;;;3.42;2.10;;;;;;;23.01;67.79;100531.14;1715501;81;21073;-60
2021/06/12 01:07:33;;;;;;;2.75;2.00;;;;;;;22.99;67.75;100537.05;1722464;81;21059;-59
2021/06/12 01:09:59;;;;;;;2.50;2.00;;;;;;;22.98;67.71;100529.05;1717600;82;21263;-58
2021/06/12 01:12:29;;;;;;;2.27;1.80;;;;;;;22.97;67.68;100526.84;1721743;81;20903;-58
2021/06/12 01:14:59;;;;;;;;;;;;;;;22.98;67.72;100527.09;1694223;83;21359;-58
2021/06/12 01:17:29;;;;;;;2.40;2.00;;;;;;;22.99;67.73;100525.13;1693468;83;20408;-59
2021/06/12 01:20:33;;;;;;;2.42;1.77;;;;;;;22.98;67.81;100524.89;1725811;81;21068;-58
2021/06/12 01:23:17;;;;;;;2.65;1.85;;;;;;;22.98;67.87;100525.70;1724762;81;21118;-58
2021/06/12 01:26:30;;;;;;;2.40;1.87;;;;;;;22.97;67.94;100523.26;1720673;81;21024;-58
2021/06/12 01:29:21;;;;;;;2.52;2.05;;;;;;;22.96;67.92;100525.22;1704684;83;21554;-58
2021/06/12 01:31:48;;;;;;;2.55;2.08;;;;;;;22.96;67.92;100521.05;1694735;83;21079;-58
2021/06/12 01:34:14;;;;;;;2.65;1.90;;;;;;;22.94;67.87;100524.77;1734790;81;21438;-58
2021/06/12 01:36:41;;;;;;;2.40;2.00;;;;;;;22.92;67.81;100522.07;1728940;81;21813;-60
2021/06/12 01:39:07;;;;;;;2.87;1.92;;;;;;;22.91;67.76;100525.45;1718058;81;21108;-58
2021/06/12 01:41:33;;;;;;;3.25;1.90;;;;;;;22.89;67.75;100529.70;1751260;80;20988;-59
2021/06/12 01:43:59;;;;;;;2.83;1.80;;;;;;;22.89;67.72;100526.34;1709878;82;20881;-58
2021/06/12 01:46:25;;;;;;;2.95;1.90;;;;;;;22.91;67.72;100521.29;1671675;83;21580;-59
2021/06/12 01:48:52;;;;;;;3.35;1.80;;;;;;;22.92;67.79;100522.07;1714357;81;22041;-59
2021/06/12 01:51:18;;;;;;;2.60;2.20;;;;;;;22.92;67.85;100521.50;1747171;80;20977;-59
2021/06/12 01:53:44;;;;;;;2.17;1.70;;;;;;;22.92;67.93;100516.52;1730401;82;20952;-58
2021/06/12 01:56:11;;;;;;;2.33;1.75;;;;;;;22.92;67.96;100517.91;1714697;81;21128;-59
2021/06/12 01:58:41;;;;;;;2.55;1.80;;;;;;;22.92;67.94;100517.91;1751291;80;21023;-58
2021/06/12 02:01:09;;;;;;;2.57;1.87;;;;;;;22.93;67.92;100528.68;1753050;80;21430;-59
2021/06/12 02:03:35;;;;;;;2.50;1.82;;;;;;;22.92;67.88;100522.07;1754058;80;21052;-59
2021/06/12 02:06:01;;;;;;;2.67;1.80;;;;;;;22.91;67.83;100522.67;1729960;81;21810;-58
2021/06/12 02:08:28;;;;;;;2.90;2.00;;;;;;;22.89;67.79;100522.19;1740828;81;21007;-59
2021/06/12 02:10:54;;;;;;;2.50;1.95;;;;;;;22.87;67.77;100523.69;1751530;80;21784;-59
2021/06/12 02:13:21;;;;;;;3.45;1.85;;;;;;;22.88;67.71;100520.56;1729513;81;21748;-58
2021/06/12 02:15:54;;;;;;;3.02;1.65;;;;;;;22.89;67.74;100532.47;1729427;81;21457;-59
2021/06/12 02:18:20;;;;;;;2.15;1.70;;;;;;;22.90;67.79;100528.55;1728803;81;21013;-59
2021/06/12 02:20:49;;;;;;;2.22;1.87;;;;;;;22.90;67.86;100529.37;1715590;81;20997;-59
2021/06/12 02:23:15;;;;;;;2.90;1.75;;;;;;;22.91;67.93;100530.19;1738314;81;21036;-59
2021/06/12 02:25:41;;;;;;;2.20;1.60;;;;;;;22.91;67.96;100535.73;1738647;81;21311;-58
2021/06/12 02:28:11;;;;;;;2.42;1.70;;;;;;;22.91;67.93;100535.73;1710033;82;20912;-58
2021/06/12 02:30:57;;;;;;;2.33;1.73;;;;;;;22.90;67.89;100534.92;1742906;80;21023;-58
2021/06/12 02:33:23;;;;;;;2.67;1.90;;;;;;;22.89;67.87;100540.80;1731590;81;21027;-59
2021/06/12 02:35:49;;;;;;;2.33;1.67;;;;;;;22.88;67.82;100542.75;1749346;80;21092;-59
2021/06/12 02:38:15;;;;;;;2.00;1.60;;;;;;;22.86;67.78;100544.25;1756386;80;21137;-59
2021/06/12 02:40:41;;;;;;;2.12;1.75;;;;;;;22.84;67.77;100546.54;1756378;80;21032;-58
2021/06/12 02:43:07;;;;;;;2.22;1.47;;;;;;;22.85;67.72;100541.23;1756404;80;21008;-58
2021/06/12 02:45:34;;;;;;;2.75;1.90;;;;;;;22.85;67.74;100538.46;1753421;80;20985;-58
2021/06/12 02:48:02;;;;;;;2.17;1.50;;;;;;;22.87;67.79;100537.56;1756662;80;21057;-59
2021/06/12 02:50:33;;;;;;;3.05;1.80;;;;;;;22.87;67.85;100543.11;1755681;80;21182;-59
2021/06/12 02:53:04;;;;;;;;;;;;;;;22.86;67.91;100540.09;1751015;80;21566;-59
2021/06/12 02:55:31;;;;;;;;;;;;;;;22.87;67.96;100548.66;1758510;80;20222;-59
2021/06/12 02:57:58;;;;;;;2.15;1.60;;;;;;;22.85;67.95;100543.44;1756410;80;20449;-59
2021/06/12 03:00:24;;;;;;;1.87;1.60;;;;;;;22.83;67.95;100551.27;1756752;80;21033;-58
2021/06/12 03:02:50;;;;;;;1.98;1.60;;;;;;;22.81;67.92;100546.66;1768569;80;21135;-58
2021/06/12 03:05:20;;;;;;;2.10;1.67;;;;;;;22.80;67.89;100551.95;1716342;82;21088;-58
2021/06/12 03:07:49;;;;;;;2.92;1.82;;;;;;;22.79;67.83;100555.87;1729666;82;21033;-60
2021/06/12 03:10:16;;;;;;;2.30;1.65;;;;;;;22.79;67.83;100560.64;1736362;80;21088;-58
2021/06/12 03:12:46;;;;;;;2.33;1.65;;;;;;;22.80;67.76;100559.47;1690565;82;21084;-58
2021/06/12 03:15:12;;;;;;;2.27;1.55;;;;;;;22.81;67.76;100559.70;1733266;80;21280;-58
2021/06/12 03:17:39;;;;;;;3.02;1.80;;;;;;;22.81;67.84;100557.75;1760359;80;21656;-58
2021/06/12 03:20:06;;;;;;;1.92;1.60;;;;;;;22.82;67.92;100553.83;1731393;81;20985;-59
2021/06/12 03:22:34;;;;;;;2.10;1.35;;;;;;;22.83;67.97;100552.66;1731819;81;21056;-59
2021/06/12 03:25:03;;;;;;;2.10;1.70;;;;;;;22.84;67.99;100553.47;1727400;81;21020;-59
2021/06/12 03:27:29;;;;;;;2.52;1.75;;;;;;;22.84;67.98;100553.47;1734508;81;21982;-59
2021/06/12 03:29:56;;;;;;;3.02;1.90;;;;;;;22.82;67.93;100552.45;1727296;81;21111;-59
2021/06/12 03:32:23;;;;;;;3.83;1.70;;;;;;;22.82;67.88;100555.22;1759637;80;21650;-59
2021/06/12 03:34:49;;;;;;;1.80;1.60;;;;;;;22.82;67.84;100549.67;1766032;80;21156;-59
2021/06/12 03:37:16;;;;;;;2.45;1.70;;;;;;;22.81;67.82;100555.55;1768058;80;20982;-59
2021/06/12 03:39:42;;;;;;;2.60;1.98;;;;;;;22.78;67.78;100555.66;1767355;80;21565;-59
2021/06/12 03:42:08;;;;;;;2.58;1.70;;;;;;;22.79;67.72;100557.27;1748617;80;21049;-59
2021/06/12 03:44:36;;;;;;;2.50;1.50;;;;;;;22.83;67.74;100560.20;1720578;81;21535;-58
2021/06/12 03:47:02;;;;;;;2.77;1.75;;;;;;;22.83;67.81;100564.36;1762303;80;21091;-59
2021/06/12 03:49:29;;;;;;;2.22;1.60;;;;;;;22.84;67.87;100565.39;1767806;80;21079;-58
2021/06/12 03:51:55;;;;;;;3.75;2.00;;;;;;;22.85;67.93;100564.81;1762108;80;21454;-59
2021/06/12 03:54:21;;;;;;;2.72;1.57;;;;;;;22.86;67.97;100571.99;1729048;81;21024;-59
2021/06/12 03:56:47;;;;;;;2.42;1.80;;;;;;;22.85;67.92;100569.79;1770302;80;21037;-59
2021/06/12 03:59:13;;;;;;;1.92;1.50;;;;;;;22.85;67.88;100568.98;1758682;80;21035;-59
2021/06/12 04:01:40;;;;;;;1.85;1.42;;;;;;;22.85;67.83;100573.14;1756149;80;21060;-59
2021/06/12 04:04:06;;;;;;;2.45;1.80;;;;;;;22.84;67.79;100581.22;1752174;80;21115;-60
2021/06/12 04:06:32;;;;;;;2.10;1.65;;;;;;;22.82;67.77;100588.50;1764450;80;20980;-59
2021/06/12 04:08:58;;;;;;;2.85;1.80;;;;;;;22.81;67.75;100594.38;1751877;80;20981;-59
2021/06/12 04:11:25;;;;;;;2.42;1.47;;;;;;;22.82;67.67;100598.78;1737452;81;21005;-59
2021/06/12 04:13:51;;;;;;;2.05;1.70;;;;;;;22.84;67.68;100597.86;1737977;81;21072;-59
2021/06/12 04:16:17;;;;;;;3.20;1.67;;;;;;;22.85;67.73;100605.03;1710101;81;21546;-59
2021/06/12 04:18:44;;;;;;;2.12;1.70;;;;;;;22.86;67.80;100608.05;1737570;81;20959;-58
2021/06/12 04:21:10;;;;;;;3.05;1.57;;;;;;;22.86;67.84;100612.22;1738360;81;21531;-59
2021/06/12 04:23:36;;;;;;;1.70;1.50;;;;;;;22.84;67.90;100605.61;1740488;81;21460;-59
2021/06/12 04:26:02;;;;;;;2.27;1.90;;;;;;;22.85;67.87;100608.62;1738931;81;21088;-59
2021/06/12 04:28:28;;;;;;;2.37;1.67;;;;;;;22.84;67.82;100608.95;1739081;81;21079;-61
2021/06/12 04:30:55;;;;;;;2.27;1.72;;;;;;;22.84;67.80;100608.95;1735971;81;21087;-59
2021/06/12 04:33:21;;;;;;;2.42;1.70;;;;;;;22.83;67.74;100617.84;1735148;81;21481;-58
2021/06/12 04:35:47;;;;;;;2.12;1.67;;;;;;;22.83;67.72;100614.28;1738337;81;21565;-58
2021/06/12 04:38:13;;;;;;;2.00;1.45;;;;;;;22.82;67.69;100611.27;1737379;81;21413;-59
2021/06/12 04:40:39;;;;;;;3.02;1.55;;;;;;;22.83;67.63;100615.67;1737540;82;21154;-58
2021/06/12 04:43:07;;;;;;;2.10;1.65;;;;;;;22.85;67.65;100615.56;1737727;81;21180;-58
2021/06/12 04:45:33;;;;;;;2.17;1.60;;;;;;;22.85;67.71;100615.56;1733816;81;21032;-60
2021/06/12 04:48:00;;;;;;;2.00;1.40;;;;;;;22.87;67.75;100616.05;1736980;81;21211;-58
2021/06/12 04:50:28;;;;;;;2.12;1.67;;;;;;;22.88;67.81;100621.00;1737052;81;21021;-59
2021/06/12 04:52:54;;;;;;;3.33;1.80;;;;;;;22.88;67.81;100621.00;1735004;81;21142;-58
2021/06/12 04:55:20;;;;;;;2.08;1.57;;;;;;;22.88;67.81;100627.94;1736689;81;21533;-59
2021/06/12 04:57:47;;;;;;;3.45;1.50;;;;;;;22.88;67.75;100630.70;1735887;81;20977;-59
2021/06/12 05:00:14;;;;;;;2.08;1.70;;;;;;;22.89;67.71;100628.17;1721413;81;21022;-59
2021/06/12 05:02:40;;;;;;;2.40;1.72;;;;;;;22.88;67.68;100629.32;1706628;82;21007;-58
2021/06/12 05:05:09;;;;;;;2.30;1.65;;;;;;;22.86;67.64;100638.00;1756435;80;21312;-58
2021/06/12 05:07:36;;;;;;;1.92;1.50;;;;;;;22.86;67.61;100639.95;1716818;81;21059;-59
2021/06/12 05:10:04;;;;;;;2.30;1.40;;;;;;;22.87;67.57;100636.04;1735933;81;21008;-59
2021/06/12 05:12:30;;;;;;;2.05;1.40;;;;;;;22.89;67.55;100638.70;1735522;81;21066;-58
2021/06/12 05:14:59;;;;;;;1.90;1.40;;;;;;;22.90;67.62;100639.52;1738071;81;21738;-59
2021/06/12 05:17:24;;;;;;;3.60;1.40;;;;;;;22.91;67.67;100638.38;1737302;81;21494;-59
2021/06/12 05:19:51;;;;;;;1.90;1.40;;;;;;;22.91;67.71;100641.97;1736762;81;21471;-59
2021/06/12 05:22:24;;;;;;;2.05;1.70;;;;;;;22.91;67.72;100648.90;1740879;81;21017;-59
2021/06/12 05:24:50;;;;;;;1.85;1.37;;;;;;;22.90;67.71;100645.88;1736106;81;21036;-58
2021/06/12 05:27:16;;;;;;;2.80;1.80;;;;;;;22.90;67.67;100646.45;1736572;81;21471;-59
2021/06/12 05:29:42;;;;;;;2.20;1.52;;;;;;;22.90;67.63;100650.61;1719245;81;22141;-58
2021/06/12 05:32:09;;;;;;;1.98;1.50;;;;;;;22.89;67.60;100654.53;1736208;81;21158;-58
2021/06/12 05:34:35;;;;;;;2.00;1.47;;;;;;;22.88;67.51;100654.28;1737510;81;21076;-58
2021/06/12 05:37:01;;;;;;;1.95;1.30;;;;;;;22.86;67.51;100652.44;1738118;81;21553;-58
2021/06/12 05:39:27;;;;;;;1.80;1.40;;;;;;;22.87;67.48;100658.23;1738263;81;20985;-58
2021/06/12 05:41:53;;;;;;;1.80;1.57;;;;;;;22.88;67.49;100662.61;1735710;81;21085;-58
2021/06/12 05:44:20;;;;;;;2.02;1.45;;;;;;;22.90;67.55;100656.16;1737652;81;21478;-58
2021/06/12 05:46:46;;;;;;;2.40;1.60;;;;;;;22.90;67.61;100655.59;1736544;81;21107;-59
2021/06/12 05:49:12;;;;;;;1.70;1.30;;;;;;;22.92;67.66;100663.56;1735540;81;21008;-58
2021/06/12 05:51:38;;;;;;;2.33;1.55;;;;;;;22.92;67.68;100664.95;1737367;81;21613;-58
2021/06/12 05:54:05;;;;;;;2.37;1.47;;;;;;;22.91;67.67;100661.39;1737687;81;22088;-58
2021/06/12 05:56:31;;;;;;;2.00;1.50;;;;;;;22.91;67.64;100660.00;1737674;81;21890;-59
2021/06/12 05:58:57;;;;;;;2.30;1.85;;;;;;;22.91;67.60;100661.39;1733582;81;20952;-59
2021/06/12 06:01:23;;;;;;;1.55;1.30;;;;;;;22.90;67.57;100663.91;1737220;81;21020;-58
2021/06/12 06:03:49;;;;;;;3.15;1.60;;;;;;;22.90;67.50;100663.09;1739487;81;21047;-58
2021/06/12 06:06:15;;;;;;;6.42;2.65;;;;;;;22.89;67.48;100664.23;1735973;81;21083;-59
2021/06/12 06:08:41;;;;;;;7.50;3.12;;;;;;;22.90;67.42;100663.91;1738902;81;21615;-59
2021/06/12 06:11:08;;;;;;;5.75;2.12;;;;;;;22.92;67.44;100666.33;1732653;81;21038;-59
2021/06/12 06:13:41;;;;;;;5.40;2.30;;;;;;;22.92;67.50;100660.21;1736826;81;21091;-59
2021/06/12 06:16:08;;;;;;;5.87;2.20;;;;;;;22.94;67.55;100659.31;1735413;81;21122;-59
2021/06/12 06:18:35;;;;;;;4.70;2.40;;;;;;;22.96;67.62;100661.73;1734302;81;21117;-59
2021/06/12 06:21:02;;;;;;;10.55;4.80;;;;;;;22.95;67.66;100663.72;1735967;81;21031;-59
2021/06/12 06:23:29;;;;;;;46.75;18.12;;;;;;;22.95;67.63;100660.95;1735440;81;21055;-60
2021/06/12 06:25:55;;;;;;;24.43;8.78;;;;;;;22.97;67.60;100661.98;1734893;81;22667;-59
2021/06/12 06:28:21;;;;;;;41.50;14.68;;;;;;;22.96;67.58;100664.51;1734308;81;21021;-59
2021/06/12 06:30:47;;;;;;;33.58;9.08;;;;;;;22.95;67.54;100651.23;1734623;81;21040;-58
2021/06/12 06:33:13;;;;;;;32.80;10.18;;;;;;;22.96;67.50;100663.13;1738663;81;21059;-59
2021/06/12 06:35:39;;;;;;;17.07;5.65;;;;;;;22.96;67.47;100664.51;1735023;81;21534;-59
2021/06/12 06:38:05;;;;;;;19.90;6.40;;;;;;;22.97;67.41;100660.59;1739605;81;21155;-60
2021/06/12 06:40:31;;;;;;;32.15;9.80;;;;;;;22.98;67.41;100653.33;1732049;81;21059;-59
2021/06/12 06:42:57;;;;;;;21.42;5.85;;;;;;;23.00;67.47;100653.00;1735596;81;21315;-60
2021/06/12 06:45:23;;;;;;;31.65;9.20;;;;;;;23.01;67.53;100651.83;1737598;81;21616;-59
2021/06/12 06:47:50;;;;;;;24.07;7.58;;;;;;;23.01;67.59;100649.88;1719771;81;21063;-59
2021/06/12 06:50:16;;;;;;;25.40;8.48;;;;;;;23.02;67.62;100650.69;1716015;81;21051;-59
2021/06/12 06:52:43;;;;;;;30.37;8.68;;;;;;;23.01;67.60;100642.94;1727124;81;21183;-59
2021/06/12 06:55:11;;;;;;;18.50;6.20;;;;;;;23.01;67.59;100648.48;1729336;81;21076;-59
2021/06/12 06:57:37;;;;;;;36.35;11.18;;;;;;;23.02;67.52;100650.69;1724874;80;21095;-59
2021/06/12 07:00:05;;;;;;;37.80;12.88;;;;;;;23.01;67.50;100649.05;1726622;81;21527;-59
2021/06/12 07:02:32;;;;;;;23.90;7.40;;;;;;;23.00;67.49;100646.85;1725912;81;21129;-58
2021/06/12 07:04:58;;;;;;;15.43;5.03;;;;;;;23.02;67.43;100650.12;1722375;81;21088;-58
2021/06/12 07:07:24;;;;;;;36.75;10.98;;;;;;;23.04;67.46;100651.18;1727754;81;22012;-58
2021/06/12 07:09:52;;;;;;;52.88;18.25;;;;;;;23.06;67.51;100656.61;1731601;81;20997;-59
2021/06/12 07:12:19;;;;;;;33.75;12.00;;;;;;;23.08;67.57;100657.67;1729671;81;21056;-59
2021/06/12 07:14:45;;;;;;;18.45;6.10;;;;;;;23.09;67.61;100658.70;1726566;81;21108;-59
2021/06/12 07:17:12;;;;;;;25.95;7.65;;;;;;;23.09;67.62;100655.92;1728161;81;21511;-59
2021/06/12 07:19:38;;;;;;;15.15;4.75;;;;;;;23.09;67.62;100656.50;1729545;81;21113;-58
2021/06/12 07:22:04;;;;;;;12.15;4.67;;;;;;;23.10;67.59;100659.52;1724109;81;21056;-59
2021/06/12 07:24:31;;;;;;;26.17;8.33;;;;;;;23.10;67.55;100653.97;1724644;82;21310;-58
2021/06/12 07:26:58;;;;;;;79.10;22.30;;;;;;;23.09;67.50;100657.31;1721435;82;21497;-58
2021/06/12 07:29:24;;;;;;;53.65;13.95;;;;;;;23.08;67.48;100650.16;1725027;81;21205;-58
2021/06/12 07:31:50;;;;;;;13.13;4.10;;;;;;;23.07;67.43;100652.70;1724288;83;21122;-58
2021/06/12 07:34:17;;;;;;;7.50;2.75;;;;;;;23.09;67.41;100651.77;1723830;81;21729;-59
2021/06/12 07:36:43;;;;;;;6.83;2.20;;;;;;;23.12;67.42;100650.30;1728268;81;21064;-58
2021/06/12 07:39:09;;;;;;;6.95;2.92;;;;;;;23.13;67.50;100654.67;1725063;81;21119;-59
2021/06/12 07:41:36;;;;;;;23.12;6.25;;;;;;;23.14;67.57;100651.57;1722145;81;21510;-58
2021/06/12 07:44:03;;;;;;;23.12;6.58;;;;;;;23.15;67.64;100653.20;1693089;82;21308;-58
2021/06/12 07:46:29;;;;;;;9.83;3.62;;;;;;;23.17;67.70;100650.88;1746670;80;21873;-59
2021/06/12 07:48:55;;;;;;;8.08;2.70;;;;;;;23.18;67.72;100647.54;1746341;80;21474;-59
2021/06/12 07:51:21;;;;;;;6.40;2.77;;;;;;;23.20;67.75;100651.62;1741772;80;21072;-57
2021/06/12 07:53:47;;;;;;;6.50;2.67;;;;;;;23.22;67.74;100659.02;1738958;81;21052;-58
2021/06/12 07:56:13;;;;;;;4.75;2.25;;;;;;;23.21;67.72;100650.44;1737825;81;21746;-57
2021/06/12 07:58:39;;;;;;;3.22;2.40;;;;;;;23.22;67.68;100652.08;1736029;81;20885;-57
2021/06/12 08:01:05;;;;;;;5.47;2.37;;;;;;;23.25;67.72;100645.62;1749893;80;21426;-57
2021/06/12 08:03:31;;;;;;;5.05;2.22;;;;;;;23.26;67.77;100648.04;1737810;81;20881;-57
2021/06/12 08:05:58;;;;;;;3.27;1.75;;;;;;;23.27;67.83;100644.12;1737496;81;21589;-57
2021/06/12 08:08:24;;;;;;;5.40;2.15;;;;;;;23.28;67.90;100643.55;1737934;81;23292;-57
2021/06/12 08:10:50;;;;;;;2.90;1.70;;;;;;;23.29;67.93;100647.38;1737774;81;20902;-57
2021/06/12 08:13:16;;;;;;;4.62;2.30;;;;;;;23.27;67.94;100642.73;1737261;81;21620;-57
2021/06/12 08:15:42;;;;;;;5.90;2.20;;;;;;;23.26;67.91;100643.87;1738147;81;21060;-57
2021/06/12 08:18:09;;;;;;;4.25;2.37;;;;;;;23.26;67.87;100641.09;1753072;80;21517;-57
2021/06/12 08:20:36;;;;;;;3.10;2.05;;;;;;;23.25;67.85;100640.89;1738895;81;21079;-57
2021/06/12 08:23:03;;;;;;;3.85;2.05;;;;;;;23.24;67.83;100636.48;1736840;81;21549;-57
2021/06/12 08:25:29;;;;;;;4.12;2.10;;;;;;;23.27;67.77;100634.41;1740989;81;21202;-57
2021/06/12 08:28:01;;;;;;;6.05;2.50;;;;;;;23.28;67.77;100629.09;1734650;81;21091;-57
2021/06/12 08:30:23;;;;;;;4.37;1.87;;;;;;;23.31;67.81;100631.18;1734324;81;21079;-56
2021/06/12 08:32:49;;;;;;;3.55;2.10;;;;;;;23.32;67.86;100627.27;1732902;81;21189;-57
2021/06/12 08:35:16;;;;;;;4.35;2.33;;;;;;;23.34;67.92;100629.71;1736634;81;21423;-57
2021/06/12 08:37:42;;;;;;;6.28;2.60;;;;;;;23.34;67.94;100631.88;1737019;81;21068;-57
2021/06/12 08:40:10;;;;;;;4.08;2.60;;;;;;;23.33;67.90;100626.12;1738014;81;21064;-57
2021/06/12 08:42:36;;;;;;;3.08;2.58;;;;;;;23.33;67.86;100625.30;1737090;81;21070;-57
2021/06/12 08:45:04;;;;;;;5.50;2.58;;;;;;;23.33;67.82;100630.28;1735890;81;22120;-57
2021/06/12 08:47:35;;;;;;;5.87;2.60;;;;;;;23.31;67.78;100624.24;1736694;81;21075;-58
2021/06/12 08:50:00;;;;;;;3.80;2.37;;;;;;;23.30;67.74;100621.22;1708191;81;21143;-57
2021/06/12 08:52:27;;;;;;;3.00;2.12;;;;;;;23.30;67.70;100624.00;1737199;81;20922;-57
2021/06/12 08:54:53;;;;;;;3.37;2.00;;;;;;;23.32;67.69;100621.71;1737253;81;21083;-57
2021/06/12 08:57:19;;;;;;;3.37;2.27;;;;;;;23.32;67.73;100620.32;1738151;81;21487;-57
2021/06/12 08:59:46;;;;;;;6.22;2.60;;;;;;;23.34;67.76;100624.94;1684038;82;21441;-57
2021/06/12 09:02:12;;;;;;;5.53;2.40;;;;;;;23.35;67.83;100625.75;1735589;81;21618;-57
2021/06/12 09:04:48;;;;;;;4.40;3.00;;;;;;;23.33;67.84;100623.34;1738788;81;21032;-57
2021/06/12 09:07:26;;;;;;;4.45;2.85;;;;;;;23.35;67.83;100626.58;1733595;81;21047;-57
2021/06/12 09:09:57;;;;;;;5.75;2.80;;;;;;;23.34;67.80;100623.55;1737991;81;21463;-57
2021/06/12 09:12:48;;;;;;;6.50;3.15;;;;;;;23.32;67.72;100620.32;1736659;81;21206;-57
2021/06/12 09:15:18;;;;;;;3.62;2.80;;;;;;;23.32;67.70;100620.89;1714986;81;21057;-57
2021/06/12 09:17:47;;;;;;;4.30;3.00;;;;;;;23.30;67.66;100623.22;1736961;81;21084;-57
2021/06/12 09:20:20;;;;;;;4.40;2.15;;;;;;;23.31;67.60;100618.69;1737825;81;21516;-57
2021/06/12 09:22:46;;;;;;;4.50;2.83;;;;;;;23.32;67.63;100616.73;1736139;80;21137;-57
2021/06/12 09:25:17;;;;;;;4.25;2.50;;;;;;;23.33;67.67;100621.14;1706563;82;21005;-57
2021/06/12 09:27:57;;;;;;;3.92;2.75;;;;;;;23.34;67.73;100619.39;1723971;80;21149;-57
2021/06/12 09:30:24;;;;;;;4.80;2.90;;;;;;;23.38;67.77;100618.16;1752481;80;21102;-57
2021/06/12 09:32:50;;;;;;;3.55;2.98;;;;;;;23.39;67.77;100629.47;1678712;81;21500;-57
2021/06/12 09:35:16;;;;;;;5.62;3.33;;;;;;;23.39;67.72;100624.73;1745284;80;21111;-57
2021/06/12 09:37:42;;;;;;;3.92;2.87;;;;;;;23.40;67.67;100633.31;1718114;81;20990;-57
2021/06/12 09:40:14;;;;;;;5.40;3.20;;;;;;;23.39;67.60;100628.91;1716740;81;21059;-57
2021/06/12 09:42:46;;;;;;;3.90;3.10;;;;;;;23.39;67.56;100624.73;1717904;81;21063;-57
2021/06/12 09:45:15;;;;;;;4.65;3.00;;;;;;;23.38;67.51;100626.48;1712069;81;21134;-57
2021/06/12 09:47:41;;;;;;;4.00;2.85;;;;;;;23.39;67.47;100619.76;1715742;82;21430;-57
2021/06/12 09:50:09;;;;;;;3.62;2.70;;;;;;;23.40;67.46;100623.59;1715587;81;21672;-57
2021/06/12 09:52:52;;;;;;;3.62;2.98;;;;;;;23.41;67.52;100617.47;1716711;81;21055;-57
2021/06/12 09:55:30;;;;;;;4.15;2.70;;;;;;;23.42;67.60;100614.36;1717495;82;21083;-57
2021/06/12 09:58:00;;;;;;;4.50;3.10;;;;;;;23.43;67.65;100612.37;1720303;81;21020;-57
2021/06/12 10:00:39;;;;;;;5.95;2.80;;;;;;;23.43;67.67;100611.83;1717065;81;21779;-57
2021/06/12 10:03:21;;;;;;;4.35;3.08;;;;;;;23.44;67.63;100615.42;1717712;81;21089;-57
2021/06/12 10:05:47;;;;;;;5.00;2.98;;;;;;;23.44;67.59;100610.68;1717022;81;21061;-57
2021/06/12 10:08:14;;;;;;;5.05;2.90;;;;;;;23.44;67.53;100606.52;1716526;81;20956;-57
2021/06/12 10:10:42;;;;;;;5.35;3.15;;;;;;;23.43;67.47;100603.50;1687905;83;21108;-57
2021/06/12 10:13:08;;;;;;;5.47;3.37;;;;;;;23.44;67.45;100618.20;1702707;82;21098;-57
2021/06/12 10:15:34;;;;;;;4.83;2.87;;;;;;;23.45;67.38;100611.50;1716175;82;21059;-57
2021/06/12 10:18:00;;;;;;;3.37;2.60;;;;;;;23.48;67.38;100606.06;1704065;83;21511;-57
2021/06/12 10:20:26;;;;;;;4.92;2.80;;;;;;;23.50;67.43;100612.11;1715622;81;21067;-57
2021/06/12 10:22:54;;;;;;;3.92;2.90;;;;;;;23.52;67.47;100606.19;1690842;83;21166;-57
2021/06/12 10:25:21;;;;;;;4.95;3.42;;;;;;;23.54;67.52;100606.67;1707742;83;21175;-57
2021/06/12 10:27:48;;;;;;;4.72;3.25;;;;;;;23.56;67.54;100601.00;1718097;81;21454;-58
2021/06/12 10:30:17;;;;;;;5.37;3.30;;;;;;;23.58;67.50;100604.26;1716884;81;21102;-57
2021/06/12 10:32:50;;;;;;;5.50;3.60;;;;;;;23.62;67.46;100598.83;1684079;83;20940;-57
2021/06/12 10:35:18;;;;;;;4.28;3.27;;;;;;;23.62;67.39;100599.64;1725177;82;21075;-57
2021/06/12 10:38:15;;;;;;;6.12;3.17;;;;;;;23.64;67.34;100601.48;1734674;80;23185;-57
2021/06/12 10:40:57;;;;;;;4.05;3.08;;;;;;;23.63;67.24;100587.39;1758951;80;21064;-57
2021/06/12 10:43:27;;;;;;;3.22;2.60;;;;;;;23.65;67.19;100592.00;1757878;80;21092;-57
2021/06/12 10:46:08;;;;;;;3.52;2.67;;;;;;;23.68;67.19;100579.98;1757499;80;21036;-57
2021/06/12 10:48:53;;;;;;;3.45;2.50;;;;;;;23.71;67.25;100577.91;1762042;80;21037;-57
2021/06/12 10:51:31;;;;;;;4.28;2.95;;;;;;;23.74;67.29;100581.38;1752538;80;21424;-57
2021/06/12 10:54:26;;;;;;;4.58;3.30;;;;;;;23.77;67.30;100577.90;1758710;81;21081;-57
2021/06/12 10:57:02;;;;;;;3.87;3.10;;;;;;;23.76;67.30;100566.58;1765617;80;21134;-57
2021/06/12 10:59:51;;;;;;;3.35;2.90;;;;;;;23.77;67.24;100564.82;1764179;80;21013;-57
2021/06/12 11:02:31;;;;;;;4.45;2.80;;;;;;;23.77;67.18;100560.66;1731087;81;21064;-57
2021/06/12 11:05:05;;;;;;;4.47;3.20;;;;;;;23.77;67.12;100553.70;1730801;81;21064;-57
2021/06/12 11:07:38;;;;;;;3.90;2.92;;;;;;;23.76;67.06;100553.50;1732798;81;21021;-57
2021/06/12 11:10:16;;;;;;;4.75;2.60;;;;;;;23.77;67.05;100543.17;1732252;81;21574;-57
2021/06/12 11:12:56;;;;;;;3.35;2.52;;;;;;;23.81;67.01;100545.49;1725515;81;21866;-57
2021/06/12 11:15:29;;;;;;;4.00;2.93;;;;;;;23.85;67.00;100546.45;1766993;80;20997;-58
2021/06/12 11:18:17;;;;;;;4.03;2.70;;;;;;;23.84;67.03;100543.43;1766798;80;21654;-58
2021/06/12 11:20:48;;;;;;;4.03;2.90;;;;;;;23.92;67.08;100546.11;1760648;80;21040;-58
2021/06/12 11:23:17;;;;;;;3.15;2.58;;;;;;;23.96;67.10;100546.22;1763979;80;21009;-58
2021/06/12 11:25:46;;;;;;;3.90;2.90;;;;;;;23.98;67.08;100541.11;1759817;80;21091;-58
2021/06/12 11:28:21;;;;;;;3.62;2.77;;;;;;;24.01;67.07;100534.88;1759557;80;21131;-58
2021/06/12 11:30:49;;;;;;;3.30;2.95;;;;;;;24.04;66.99;100538.34;1763819;80;21553;-57